Time;durP1;ratioP1;P1;durP2;ratioP2;P2;SDS_P1;SDS_P2;PMS_P1;PMS_P2;Temp;Humidity;BMP_temperature;BMP_pressure;BME280_temperature;BME280_humidity;BME280_pressure;Samples;Min_cycle;Max_cycle;Signal;HPM_P1;HPM_P2
2023/07/13 00:01:53;;;;;;;2.40;2.20;;;;;;;18.93;100.00;96324.03;5048453;27;105272;-59
2023/07/13 00:04:22;;;;;;;2.27;2.07;;;;;;;18.86;100.00;96312.84;5047905;27;105190;-59
2023/07/13 00:06:51;;;;;;;2.40;2.20;;;;;;;18.87;100.00;96305.56;5048294;27;101922;-59
2023/07/13 00:09:19;;;;;;;2.53;2.30;;;;;;;18.74;100.00;96303.72;5052542;27;101716;-59
2023/07/13 00:11:52;;;;;;;2.80;2.07;;;;;;;18.75;100.00;96294.53;5048413;27;102181;-59
2023/07/13 00:14:19;;;;;;;2.20;1.97;;;;;;;18.72;100.00;96281.66;5049895;27;102010;-59
2023/07/13 00:16:47;;;;;;;2.33;2.17;;;;;;;18.69;100.00;96258.03;5047780;27;105730;-59
2023/07/13 00:19:15;;;;;;;2.33;1.90;;;;;;;18.63;100.00;96254.66;5049646;27;101830;-59
2023/07/13 00:21:43;;;;;;;3.40;1.90;;;;;;;18.70;100.00;96256.94;5048296;27;103629;-59
2023/07/13 00:24:13;;;;;;;2.40;1.90;;;;;;;18.68;100.00;96249.16;5047488;27;105711;-59
2023/07/13 00:26:40;;;;;;;2.07;1.87;;;;;;;18.76;100.00;96251.13;5047968;27;102270;-59
2023/07/13 00:29:08;;;;;;;1.60;1.50;;;;;;;18.96;100.00;96263.31;5049627;27;102594;-59
2023/07/13 00:31:36;;;;;;;1.80;1.60;;;;;;;19.13;100.00;96258.06;5052471;27;104109;-59
2023/07/13 00:34:05;;;;;;;1.70;1.60;;;;;;;19.10;100.00;96258.66;5051615;27;105872;-59
2023/07/13 00:36:33;;;;;;;2.17;1.40;;;;;;;19.06;100.00;96268.44;5050900;27;105503;-59
2023/07/13 00:39:00;;;;;;;1.70;1.60;;;;;;;19.04;100.00;96268.78;5050933;27;101996;-59
2023/07/13 00:41:28;;;;;;;1.63;1.53;;;;;;;19.27;100.00;96264.19;5051255;27;105268;-59
2023/07/13 00:43:55;;;;;;;2.27;1.43;;;;;;;19.09;100.00;96262.47;5050797;27;103965;-59
2023/07/13 00:46:28;;;;;;;2.07;1.40;;;;;;;19.16;100.00;96260.13;5051376;27;102185;-59
2023/07/13 00:48:58;;;;;;;1.40;1.30;;;;;;;19.02;100.00;96254.00;5052779;27;102385;-59
2023/07/13 00:51:31;;;;;;;1.17;1.10;;;;;;;19.03;100.00;96248.28;5050614;27;105315;-59
2023/07/13 00:54:01;;;;;;;1.37;1.27;;;;;;;18.96;100.00;96249.84;5054600;27;101988;-59
2023/07/13 00:56:32;;;;;;;1.37;1.20;;;;;;;19.00;100.00;96248.13;5052188;27;102528;-59
2023/07/13 00:59:01;;;;;;;1.10;1.10;;;;;;;19.04;100.00;96247.22;5051185;27;102370;-59
2023/07/13 01:01:28;;;;;;;0.90;0.90;;;;;;;19.10;100.00;96250.56;5051273;27;103610;-59
2023/07/13 01:03:56;;;;;;;1.83;1.30;;;;;;;18.99;100.00;96250.03;5050650;27;105077;-59
2023/07/13 01:06:24;;;;;;;1.23;1.20;;;;;;;19.07;100.00;96251.97;5051084;27;102053;-59
2023/07/13 01:08:51;;;;;;;1.60;1.20;;;;;;;19.03;100.00;96252.91;5050894;27;105610;-59
2023/07/13 01:11:21;;;;;;;1.47;1.07;;;;;;;18.94;100.00;96258.25;5051652;27;102524;-59
2023/07/13 01:13:50;;;;;;;1.00;1.00;;;;;;;18.92;100.00;96262.34;5054494;27;101923;-59
2023/07/13 01:16:25;;;;;;;1.20;1.10;;;;;;;18.87;100.00;96278.63;5050228;27;105459;-59
2023/07/13 01:18:52;;;;;;;1.50;1.40;;;;;;;18.79;100.00;96284.72;5052445;27;101705;-59
2023/07/13 01:21:20;;;;;;;2.13;1.20;;;;;;;18.71;100.00;96280.88;5050494;27;104915;-59
2023/07/13 01:23:48;;;;;;;1.53;1.40;;;;;;;18.71;100.00;96291.66;5049997;27;105389;-59
2023/07/13 01:26:15;;;;;;;1.73;1.50;;;;;;;18.72;100.00;96289.75;5052143;27;102046;-59
2023/07/13 01:28:41;;;;;;;1.50;1.40;;;;;;;18.64;100.00;96290.47;5051051;27;105140;-59
2023/07/13 01:31:09;;;;;;;1.63;1.53;;;;;;;18.65;100.00;96289.38;5051411;27;102586;-59
2023/07/13 01:33:38;;;;;;;2.90;1.53;;;;;;;18.64;100.00;96296.63;5052006;27;102066;-59
2023/07/13 01:36:05;;;;;;;1.30;1.20;;;;;;;18.61;100.00;96288.38;5053347;27;104444;-59
2023/07/13 01:38:35;;;;;;;1.83;1.27;;;;;;;18.74;100.00;96287.56;5050429;27;101877;-59
2023/07/13 01:41:02;;;;;;;1.40;1.30;;;;;;;18.74;100.00;96298.34;5050404;27;102524;-58
2023/07/13 01:43:29;;;;;;;1.07;1.07;;;;;;;18.70;100.00;96281.97;5049837;27;105860;-58
2023/07/13 01:45:56;;;;;;;1.30;1.20;;;;;;;18.63;100.00;96286.19;5051947;27;102050;-58
2023/07/13 01:48:23;;;;;;;2.10;1.30;;;;;;;18.68;100.00;96283.34;5050244;27;105164;-58
2023/07/13 01:50:50;;;;;;;2.07;1.20;;;;;;;18.67;100.00;96281.78;5049588;27;103986;-58
2023/07/13 01:53:18;;;;;;;1.27;1.17;;;;;;;18.78;100.00;96280.44;5050362;27;101941;-58
2023/07/13 01:55:46;;;;;;;1.30;1.20;;;;;;;18.81;100.00;96279.84;5050243;27;105080;-59
2023/07/13 01:58:13;;;;;;;1.40;1.07;;;;;;;18.73;100.00;96283.25;5053173;27;104111;-59
2023/07/13 02:00:40;;;;;;;1.50;1.20;;;;;;;18.59;100.00;96291.34;5050426;27;104468;-59
2023/07/13 02:03:07;;;;;;;1.40;1.30;;;;;;;18.60;100.00;96286.78;5050995;27;102489;-59
2023/07/13 02:05:34;;;;;;;1.10;1.00;;;;;;;18.52;100.00;96285.59;5051360;27;101950;-59
2023/07/13 02:08:01;;;;;;;1.43;1.10;;;;;;;18.63;100.00;96284.28;5050102;27;105468;-59
2023/07/13 02:10:28;;;;;;;1.47;1.00;;;;;;;18.57;100.00;96288.19;5049703;27;105149;-59
2023/07/13 02:12:56;;;;;;;1.33;1.23;;;;;;;18.47;100.00;96293.00;5050111;27;101908;-59
2023/07/13 02:15:23;;;;;;;1.37;1.27;;;;;;;18.50;100.00;96293.19;5049876;27;103816;-59
2023/07/13 02:17:50;;;;;;;1.90;1.27;;;;;;;18.67;100.00;96293.34;5050846;27;102681;-59
2023/07/13 02:20:17;;;;;;;2.00;1.30;;;;;;;18.55;100.00;96293.09;5036566;27;102024;-59
2023/07/13 02:22:44;;;;;;;1.83;1.20;;;;;;;18.51;100.00;96302.06;5049257;27;105701;-59
2023/07/13 02:25:11;;;;;;;1.23;1.20;;;;;;;18.57;100.00;96298.16;5049844;27;101994;-58
2023/07/13 02:27:38;;;;;;;1.30;1.20;;;;;;;18.76;100.00;96296.94;5049784;27;104829;-58
2023/07/13 02:30:08;;;;;;;1.67;1.27;;;;;;;18.61;100.00;96301.84;5049174;27;104664;-58
2023/07/13 02:32:35;;;;;;;1.37;1.20;;;;;;;18.67;100.00;96298.75;5049663;27;101852;-59
2023/07/13 02:35:02;;;;;;;1.40;1.20;;;;;;;18.85;100.00;96299.69;5049562;27;104858;-58
2023/07/13 02:37:29;;;;;;;2.50;1.20;;;;;;;18.67;100.00;96297.94;5048571;27;105174;-58
2023/07/13 02:39:56;;;;;;;1.83;1.20;;;;;;;18.52;100.00;96306.38;5049510;27;101816;-58
2023/07/13 02:42:23;;;;;;;1.20;1.20;;;;;;;18.47;100.00;96315.31;5052245;27;105489;-58
2023/07/13 02:44:50;;;;;;;1.40;1.30;;;;;;;18.53;100.00;96314.13;5049529;27;101966;-58
2023/07/13 02:47:20;;;;;;;1.27;1.17;;;;;;;18.73;100.00;96318.28;5049470;27;103722;-58
2023/07/13 02:49:47;;;;;;;2.13;1.30;;;;;;;18.50;100.00;96313.94;5048668;27;105310;-58
2023/07/13 02:52:14;;;;;;;1.33;1.23;;;;;;;18.72;100.00;96324.75;5049359;27;101942;-58
2023/07/13 02:54:41;;;;;;;1.90;1.30;;;;;;;18.54;100.00;96323.78;5048628;27;103913;-58
2023/07/13 02:57:08;;;;;;;1.83;1.60;;;;;;;18.35;100.00;96328.50;5031645;27;106182;-58
2023/07/13 02:59:35;;;;;;;2.43;1.43;;;;;;;18.28;100.00;96335.38;5049442;27;102028;-58
2023/07/13 03:02:02;;;;;;;3.10;2.17;;;;;;;18.23;100.00;96344.34;5049360;27;104656;-58
2023/07/13 03:04:31;;;;;;;1.97;1.70;;;;;;;18.33;100.00;96337.97;5052083;27;105476;-58
2023/07/13 03:06:58;;;;;;;2.97;1.80;;;;;;;18.30;100.00;96346.63;5049173;27;105425;-58
2023/07/13 03:09:31;;;;;;;2.97;1.90;;;;;;;18.35;100.00;96338.47;5048777;27;105073;-58
2023/07/13 03:12:00;;;;;;;1.97;1.80;;;;;;;18.44;100.00;96342.06;5049091;27;102347;-58
2023/07/13 03:14:31;;;;;;;2.23;1.93;;;;;;;18.43;100.00;96351.25;5049134;27;106679;-59
2023/07/13 03:16:58;;;;;;;1.70;1.60;;;;;;;18.41;100.00;96339.97;5049871;27;102479;-58
2023/07/13 03:19:29;;;;;;;1.90;1.80;;;;;;;18.40;100.00;96347.25;5049120;27;101925;-59
2023/07/13 03:21:57;;;;;;;2.93;1.97;;;;;;;18.27;100.00;96352.63;5049107;27;105215;-58
2023/07/13 03:24:25;;;;;;;2.27;2.07;;;;;;;18.14;100.00;96362.28;5051849;27;105585;-59
2023/07/13 03:26:53;;;;;;;3.60;2.13;;;;;;;18.09;100.00;96358.91;5048815;27;105274;-58
2023/07/13 03:29:20;;;;;;;2.47;2.27;;;;;;;18.06;100.00;96365.69;5048378;27;105576;-59
2023/07/13 03:31:47;;;;;;;3.07;2.40;;;;;;;18.07;100.00;96363.75;5048607;27;101858;-59
2023/07/13 03:34:14;;;;;;;3.27;2.57;;;;;;;18.12;100.00;96367.16;5048801;27;104200;-59
2023/07/13 03:36:42;;;;;;;2.30;2.20;;;;;;;18.11;100.00;96376.34;5048370;27;105465;-58
2023/07/13 03:39:13;;;;;;;3.17;2.50;;;;;;;18.09;100.00;96372.34;5048411;27;101903;-58
2023/07/13 03:41:59;;;;;;;3.40;2.50;;;;;;;18.10;100.00;96384.72;5049179;27;105330;-59
2023/07/13 03:44:26;;;;;;;3.47;2.60;;;;;;;18.08;100.00;96382.31;5048864;27;104843;-58
2023/07/13 03:46:56;;;;;;;2.93;2.37;;;;;;;18.14;100.00;96386.50;5052419;27;102117;-58
2023/07/13 03:49:24;;;;;;;4.37;2.50;;;;;;;18.19;100.00;96388.28;5048450;27;105799;-58
2023/07/13 03:51:51;;;;;;;3.83;2.87;;;;;;;18.18;100.00;96392.09;5048999;27;102096;-58
2023/07/13 03:54:19;;;;;;;3.17;2.80;;;;;;;18.13;100.00;96395.69;5049059;27;105230;-59
2023/07/13 03:56:46;;;;;;;3.50;2.80;;;;;;;18.16;100.00;96402.34;5048699;27;104478;-58
2023/07/13 03:59:13;;;;;;;3.27;2.90;;;;;;;18.15;100.00;96395.38;5049234;27;101805;-59
2023/07/13 04:01:40;;;;;;;3.83;2.80;;;;;;;18.15;100.00;96398.84;5049291;27;103922;-59
2023/07/13 04:04:07;;;;;;;4.33;2.90;;;;;;;18.10;100.00;96401.63;5049952;27;102790;-59
2023/07/13 04:06:35;;;;;;;3.50;3.23;;;;;;;18.00;100.00;96411.81;5053701;27;102268;-59
2023/07/13 04:09:05;;;;;;;3.70;2.90;;;;;;;17.99;100.00;96404.81;5056982;27;102503;-58
2023/07/13 04:11:36;;;;;;;4.87;3.57;;;;;;;17.99;100.00;96408.31;5054003;27;101796;-58
2023/07/13 04:14:03;;;;;;;3.33;3.00;;;;;;;18.03;100.00;96411.22;5054306;27;102622;-58
2023/07/13 04:16:30;;;;;;;3.67;3.37;;;;;;;18.01;100.00;96413.41;5051978;27;105684;-58
2023/07/13 04:18:59;;;;;;;3.60;3.20;;;;;;;18.05;100.00;96423.25;5053985;27;102230;-58
2023/07/13 04:21:27;;;;;;;3.27;3.07;;;;;;;18.06;100.00;96421.38;5054041;27;102852;-58
2023/07/13 04:23:55;;;;;;;3.63;3.20;;;;;;;18.02;100.00;96420.38;5053392;27;102624;-59
2023/07/13 04:26:22;;;;;;;3.90;3.40;;;;;;;17.99;100.00;96423.66;5053780;27;101958;-59
2023/07/13 04:28:51;;;;;;;3.30;3.10;;;;;;;17.99;100.00;96426.34;5053806;27;102282;-58
2023/07/13 04:31:19;;;;;;;3.40;3.07;;;;;;;17.97;100.00;96434.72;5055229;27;105502;-58
2023/07/13 04:33:46;;;;;;;3.10;2.80;;;;;;;17.97;100.00;96433.91;5053783;27;103146;-59
2023/07/13 04:36:13;;;;;;;4.37;2.50;;;;;;;18.05;100.00;96433.25;5053097;27;102735;-59
2023/07/13 04:38:41;;;;;;;3.10;2.80;;;;;;;18.03;100.00;96435.44;5051904;27;102034;-59
2023/07/13 04:41:09;;;;;;;3.30;2.77;;;;;;;18.04;100.00;96439.72;5053279;27;102336;-59
2023/07/13 04:43:37;;;;;;;3.27;2.97;;;;;;;18.12;100.00;96450.59;5053045;27;102508;-59
2023/07/13 04:46:08;;;;;;;5.40;3.00;;;;;;;17.96;100.00;96451.16;5052011;27;102199;-59
2023/07/13 04:48:35;;;;;;;4.63;2.50;;;;;;;17.89;100.00;96454.25;5053255;27;102672;-59
2023/07/13 04:51:02;;;;;;;2.80;2.60;;;;;;;17.85;100.00;96455.09;5052735;27;102972;-59
2023/07/13 04:53:32;;;;;;;3.70;2.77;;;;;;;17.90;100.00;96455.84;5055576;27;101886;-59
2023/07/13 04:55:59;;;;;;;2.60;2.40;;;;;;;17.83;100.00;96452.69;5051444;27;105408;-59
2023/07/13 04:58:27;;;;;;;2.60;2.50;;;;;;;17.95;100.00;96458.44;5035424;27;101882;-59
2023/07/13 05:00:54;;;;;;;2.43;2.27;;;;;;;18.20;100.00;96457.22;5051930;27;104159;-60
2023/07/13 05:03:22;;;;;;;2.40;2.20;;;;;;;18.39;100.00;96457.94;5051330;27;105246;-60
2023/07/13 05:05:57;;;;;;;4.07;2.47;;;;;;;18.50;100.00;96454.78;5051528;27;101919;-60
2023/07/13 05:08:24;;;;;;;2.90;2.70;;;;;;;18.38;100.00;96459.06;5051775;27;103762;-60
2023/07/13 05:10:52;;;;;;;2.93;2.30;;;;;;;18.41;100.00;96467.31;5052452;27;103045;-60
2023/07/13 05:13:19;;;;;;;3.77;2.40;;;;;;;18.41;100.00;96467.31;5051800;27;102122;-60
2023/07/13 05:15:46;;;;;;;2.70;2.50;;;;;;;18.24;100.00;96464.38;5054694;27;104855;-60
2023/07/13 05:18:13;;;;;;;3.37;3.07;;;;;;;18.14;100.00;96461.88;5051055;27;102049;-60
2023/07/13 05:20:41;;;;;;;4.93;2.90;;;;;;;18.28;100.00;96468.09;5051347;27;104991;-60
2023/07/13 05:23:08;;;;;;;3.17;2.97;;;;;;;18.39;100.00;96466.03;5050734;27;105342;-60
2023/07/13 05:25:35;;;;;;;3.83;2.90;;;;;;;18.56;100.00;96474.31;5052958;27;101856;-60
2023/07/13 05:28:02;;;;;;;3.40;3.10;;;;;;;18.43;100.00;96469.72;5051441;27;104093;-60
2023/07/13 05:30:29;;;;;;;3.07;2.73;;;;;;;18.73;100.00;96472.63;5050880;27;103701;-60
2023/07/13 05:32:55;;;;;;;3.87;2.40;;;;;;;18.82;100.00;96472.75;5051477;27;101983;-60
2023/07/13 05:35:22;;;;;;;3.20;3.00;;;;;;;18.81;100.00;96465.75;5054201;27;105154;-60
2023/07/13 05:37:50;;;;;;;4.43;3.50;;;;;;;18.86;100.00;96466.44;5051047;27;101938;-60
2023/07/13 05:40:17;;;;;;;3.67;3.00;;;;;;;19.14;100.00;96480.69;5052786;27;102968;-60
2023/07/13 05:42:44;;;;;;;3.77;3.10;;;;;;;19.09;100.00;96478.13;5050689;27;104198;-60
2023/07/13 05:45:11;;;;;;;2.80;2.60;;;;;;;18.93;100.00;96485.72;5051021;27;102078;-60
2023/07/13 05:47:38;;;;;;;4.50;3.10;;;;;;;18.84;100.00;96489.38;5050608;27;105021;-60
2023/07/13 05:50:06;;;;;;;4.03;2.80;;;;;;;18.58;100.00;96491.00;5050212;27;105166;-61
2023/07/13 05:52:33;;;;;;;3.00;2.70;;;;;;;18.98;100.00;96484.81;5050761;27;101978;-60
2023/07/13 05:55:02;;;;;;;2.50;2.33;;;;;;;19.30;100.00;96490.88;5051984;27;101914;-60
2023/07/13 05:57:29;;;;;;;3.10;2.73;;;;;;;19.48;100.00;96483.75;5053264;27;105376;-60
2023/07/13 05:59:56;;;;;;;3.07;2.73;;;;;;;19.33;100.00;96482.19;5051716;27;102461;-60
2023/07/13 06:02:23;;;;;;;2.50;2.33;;;;;;;19.08;100.00;96498.88;5049642;27;103793;-60
2023/07/13 06:04:50;;;;;;;4.10;2.90;;;;;;;19.05;100.00;96493.28;5051068;27;101885;-60
2023/07/13 06:07:17;;;;;;;2.93;2.73;;;;;;;18.94;100.00;96499.97;5051000;27;104022;-60
2023/07/13 06:09:44;;;;;;;2.87;2.47;;;;;;;18.61;100.00;96498.47;5051484;27;103101;-60
2023/07/13 06:12:12;;;;;;;3.00;2.50;;;;;;;18.93;100.00;96501.88;5050790;27;102319;-60
2023/07/13 06:14:39;;;;;;;3.63;2.63;;;;;;;19.12;100.00;96494.47;5051007;27;103920;-60
2023/07/13 06:17:07;;;;;;;4.37;2.67;;;;;;;19.07;100.00;96481.09;5051616;27;102624;-60
2023/07/13 06:19:34;;;;;;;3.20;2.43;;;;;;;19.21;100.00;96481.94;5054013;27;101979;-60
2023/07/13 06:22:00;;;;;;;3.83;2.67;;;;;;;19.07;100.00;96474.94;5048339;27;105415;-60
2023/07/13 06:24:27;;;;;;;4.27;2.70;;;;;;;19.12;100.00;96472.13;5049952;27;102043;-60
2023/07/13 06:26:54;;;;;;;3.03;2.63;;;;;;;19.19;100.00;96480.59;5051275;27;102389;-60
2023/07/13 06:29:23;;;;;;;3.43;3.10;;;;;;;18.71;100.00;96487.50;5049634;27;102869;-60
2023/07/13 06:31:49;;;;;;;4.07;2.87;;;;;;;18.72;100.00;96494.50;5049165;27;102122;-60
2023/07/13 06:34:16;;;;;;;3.10;2.90;;;;;;;18.44;100.00;96503.63;5049799;27;105154;-60
2023/07/13 06:36:43;;;;;;;3.17;2.70;;;;;;;18.53;100.00;96502.66;5048993;27;105417;-60
2023/07/13 06:39:10;;;;;;;2.57;2.37;;;;;;;18.61;100.00;96511.94;5049437;27;101974;-60
2023/07/13 06:41:38;;;;;;;3.17;2.87;;;;;;;18.83;100.00;96515.56;5052334;27;105025;-60
2023/07/13 06:44:10;;;;;;;3.83;2.50;;;;;;;18.66;100.00;96518.03;5049572;27;101925;-60
2023/07/13 06:46:38;;;;;;;2.83;2.60;;;;;;;18.74;100.00;96519.25;5049620;27;105299;-60
2023/07/13 06:49:05;;;;;;;2.73;2.53;;;;;;;18.67;100.00;96518.81;5048838;27;105346;-60
2023/07/13 06:51:32;;;;;;;4.30;2.63;;;;;;;18.92;100.00;96524.53;5049446;27;101906;-60
2023/07/13 06:53:59;;;;;;;2.50;2.30;;;;;;;18.98;100.00;96515.28;5049412;27;105188;-60
2023/07/13 06:56:26;;;;;;;2.77;2.57;;;;;;;19.06;100.00;96516.44;5048671;27;104140;-60
2023/07/13 06:58:52;;;;;;;4.50;2.63;;;;;;;19.21;100.00;96518.84;5050705;27;101881;-60
2023/07/13 07:01:19;;;;;;;3.17;2.50;;;;;;;19.72;100.00;96509.34;5049366;27;105039;-60
2023/07/13 07:03:48;;;;;;;2.53;2.20;;;;;;;19.69;100.00;96503.78;5052071;27;105428;-60
2023/07/13 07:06:17;;;;;;;3.70;2.60;;;;;;;19.90;100.00;96500.28;5049151;27;104910;-60
2023/07/13 07:08:44;;;;;;;2.50;2.30;;;;;;;19.85;100.00;96507.72;5048518;27;103824;-60
2023/07/13 07:11:13;;;;;;;3.17;2.43;;;;;;;19.93;100.00;96512.38;5048927;27;102416;-60
2023/07/13 07:13:40;;;;;;;3.30;2.40;;;;;;;19.54;100.00;96506.81;5049022;27;105344;-60
2023/07/13 07:16:08;;;;;;;2.43;2.23;;;;;;;19.46;100.00;96519.13;5048548;27;105340;-60
2023/07/13 07:18:35;;;;;;;3.17;2.50;;;;;;;19.31;100.00;96518.66;5049001;27;101981;-60
2023/07/13 07:21:03;;;;;;;2.93;2.30;;;;;;;19.70;100.00;96510.78;5048834;27;104917;-60
2023/07/13 07:23:30;;;;;;;3.20;2.40;;;;;;;19.87;100.00;96510.91;5048273;27;105714;-60
2023/07/13 07:25:57;;;;;;;2.27;2.07;;;;;;;20.04;100.00;96506.44;5052655;27;101797;-60
2023/07/13 07:28:24;;;;;;;3.03;2.27;;;;;;;20.30;100.00;96515.56;5048306;27;104986;-60
2023/07/13 07:30:54;;;;;;;2.87;2.50;;;;;;;19.57;100.00;96517.78;5048806;27;102135;-60
2023/07/13 07:33:21;;;;;;;2.30;2.10;;;;;;;19.71;100.00;96517.75;5049006;27;103802;-60
2023/07/13 07:35:48;;;;;;;4.23;2.57;;;;;;;19.91;100.00;96523.50;5049561;27;102808;-60
2023/07/13 07:38:16;;;;;;;2.50;2.30;;;;;;;19.83;100.00;96518.03;5048275;27;101982;-60
2023/07/13 07:40:43;;;;;;;3.10;2.17;;;;;;;19.90;100.00;96518.41;5048538;27;105169;-60
2023/07/13 07:43:12;;;;;;;2.53;2.27;;;;;;;20.13;100.00;96520.84;5049643;27;102717;-60
2023/07/13 07:45:40;;;;;;;2.23;2.13;;;;;;;20.45;100.00;96517.88;5052052;27;101860;-60
2023/07/13 07:48:09;;;;;;;2.50;2.03;;;;;;;20.66;100.00;96518.13;5048068;27;104310;-60
2023/07/13 07:50:38;;;;;;;3.23;2.30;;;;;;;20.20;100.00;96533.88;5048665;27;102293;-60
2023/07/13 07:53:07;;;;;;;3.50;2.07;;;;;;;20.54;100.00;96531.44;5048580;27;104977;-60
2023/07/13 07:55:36;;;;;;;2.80;2.17;;;;;;;20.42;100.00;96539.28;5047945;27;104313;-60
2023/07/13 07:58:02;;;;;;;2.70;2.50;;;;;;;19.89;100.00;96535.72;5048670;27;101851;-60
2023/07/13 08:00:31;;;;;;;2.47;2.27;;;;;;;19.73;100.00;96539.84;5048620;27;105155;-60
2023/07/13 08:02:58;;;;;;;2.10;1.90;;;;;;;20.05;100.00;96545.03;5047866;27;105733;-60
2023/07/13 08:05:25;;;;;;;2.30;2.10;;;;;;;20.05;100.00;96550.44;5048545;27;102107;-60
2023/07/13 08:07:52;;;;;;;2.77;2.10;;;;;;;20.07;100.00;96545.56;5052626;27;102652;-60
2023/07/13 08:11:00;;;;;;;2.90;2.30;;;;;;;20.26;100.00;96540.75;5050416;27;101864;-60
2023/07/13 08:13:28;;;;;;;3.27;2.37;;;;;;;20.91;100.00;96536.38;5048154;27;104052;-60
2023/07/13 08:15:55;;;;;;;2.60;2.07;;;;;;;21.04;100.00;96530.09;5048985;27;102944;-60
2023/07/13 08:18:23;;;;;;;2.70;1.90;;;;;;;21.21;100.00;96528.22;5048378;27;101871;-60
2023/07/13 08:20:49;;;;;;;2.57;2.37;;;;;;;21.40;100.00;96522.53;5047880;27;104891;-60
2023/07/13 08:23:17;;;;;;;2.30;2.00;;;;;;;21.48;100.00;96519.06;5048846;27;102550;-60
2023/07/13 08:25:51;;;;;;;2.40;2.20;;;;;;;21.16;100.00;96514.06;5048271;27;102114;-60
2023/07/13 08:28:18;;;;;;;3.10;2.47;;;;;;;21.56;100.00;96523.69;5049633;27;102650;-60
2023/07/13 08:30:48;;;;;;;3.27;2.10;;;;;;;21.58;100.00;96529.59;5050970;27;104992;-60
2023/07/13 08:33:15;;;;;;;2.83;2.33;;;;;;;21.28;100.00;96525.88;5048071;27;105850;-60
2023/07/13 08:35:42;;;;;;;3.77;2.30;;;;;;;20.95;100.00;96531.97;5047490;27;105217;-60
2023/07/13 08:38:09;;;;;;;2.73;2.13;;;;;;;21.08;100.00;96528.38;5047746;27;102032;-60
2023/07/13 08:40:36;;;;;;;2.33;2.10;;;;;;;20.94;100.00;96547.41;5047983;27;105546;-60
2023/07/13 08:43:03;;;;;;;3.77;2.30;;;;;;;21.02;100.00;96538.50;5047281;27;104164;-61
2023/07/13 08:45:37;;;;;;;2.50;2.30;;;;;;;21.18;100.00;96547.00;5047980;27;102356;-62
2023/07/13 08:48:12;;;;;;;2.10;2.00;;;;;;;21.16;100.00;96547.34;5047962;27;104051;-62
2023/07/13 08:50:48;;;;;;;2.30;2.10;;;;;;;20.62;100.00;96544.16;5047120;27;105384;-62
2023/07/13 08:53:17;;;;;;;2.30;2.10;;;;;;;20.63;100.00;96548.47;5053753;27;101935;-62
2023/07/13 08:55:44;;;;;;;3.43;2.30;;;;;;;21.00;100.00;96548.03;5050837;27;105341;-61
2023/07/13 08:58:14;;;;;;;2.67;2.20;;;;;;;20.69;100.00;96552.63;5051387;27;102046;-62
2023/07/13 09:00:52;;;;;;;3.07;2.00;;;;;;;20.62;100.00;96549.56;5051132;27;104369;-61
2023/07/13 09:03:25;;;;;;;3.20;2.00;;;;;;;20.69;100.00;96549.94;5052131;27;102744;-62
2023/07/13 09:05:55;;;;;;;2.10;1.90;;;;;;;20.76;100.00;96553.00;5052522;27;101720;-62
2023/07/13 09:08:38;;;;;;;2.93;2.00;;;;;;;20.89;100.00;96552.94;5052158;27;102415;-62
2023/07/13 09:11:28;;;;;;;4.07;1.80;;;;;;;21.38;100.00;96552.66;5051862;27;102659;-62
2023/07/13 09:14:07;;;;;;;2.17;1.60;;;;;;;20.82;100.00;96554.47;5051172;27;101933;-62
2023/07/13 09:16:35;;;;;;;2.40;1.53;;;;;;;20.72;100.00;96557.44;5055357;27;102625;-62
2023/07/13 09:19:08;;;;;;;5.97;1.70;;;;;;;20.27;100.00;96553.97;5050853;27;101919;-62
2023/07/13 09:21:40;;;;;;;4.37;1.87;;;;;;;20.27;100.00;96553.19;5052045;27;102993;-62
2023/07/13 09:24:32;;;;;;;2.57;1.60;;;;;;;20.38;100.00;96559.94;5051684;27;102971;-62
2023/07/13 09:27:00;;;;;;;2.90;1.60;;;;;;;20.34;100.00;96562.47;5052325;27;102040;-62
2023/07/13 09:29:30;;;;;;;2.20;1.40;;;;;;;20.26;100.00;96560.47;5050380;27;105399;-62
2023/07/13 09:32:00;;;;;;;2.03;1.60;;;;;;;20.20;100.00;96560.91;5051292;27;103208;-62
2023/07/13 09:34:30;;;;;;;1.80;1.70;;;;;;;20.29;100.00;96559.06;5051558;27;101860;-62
2023/07/13 09:36:57;;;;;;;3.53;1.57;;;;;;;20.53;100.00;96568.44;5050565;27;105610;-62
2023/07/13 09:39:28;;;;;;;1.70;1.50;;;;;;;20.58;100.00;96568.31;5054207;27;101927;-63
2023/07/13 09:42:02;;;;;;;3.33;1.97;;;;;;;20.07;100.00;96554.47;5052038;27;102424;-64
2023/07/13 09:44:32;;;;;;;4.07;1.60;;;;;;;20.06;100.00;96563.63;5051350;27;102602;-63
2023/07/13 09:46:59;;;;;;;2.17;1.73;;;;;;;19.89;100.00;96562.69;5051705;27;101858;-63
2023/07/13 09:49:33;;;;;;;2.87;1.87;;;;;;;19.88;100.00;96566.47;5050133;27;105620;-63
2023/07/13 09:52:04;;;;;;;2.53;1.70;;;;;;;20.09;100.00;96554.94;5032904;27;105550;-64
2023/07/13 09:54:36;;;;;;;2.03;1.83;;;;;;;19.81;100.00;96572.31;5050238;27;101825;-64
2023/07/13 09:57:05;;;;;;;3.77;2.20;;;;;;;19.99;100.00;96573.28;5050365;27;105183;-63
2023/07/13 09:59:34;;;;;;;3.73;2.53;;;;;;;19.94;100.00;96576.88;5053027;27;104373;-63
2023/07/13 10:02:02;;;;;;;3.83;2.17;;;;;;;19.96;100.00;96571.16;5050101;27;105182;-63
2023/07/13 10:04:34;;;;;;;3.57;2.20;;;;;;;19.66;100.00;96569.94;5049203;27;105656;-63
2023/07/13 10:07:09;;;;;;;4.50;1.70;;;;;;;19.76;100.00;96568.91;5050066;27;102055;-63
2023/07/13 10:09:36;;;;;;;4.80;1.63;;;;;;;19.76;100.00;96580.53;5051451;27;102519;-63
2023/07/13 10:12:03;;;;;;;3.53;2.00;;;;;;;19.60;100.00;96591.94;5050883;27;102540;-63
2023/07/13 10:14:30;;;;;;;2.67;1.80;;;;;;;19.77;100.00;96594.78;5051309;27;101804;-63
2023/07/13 10:17:02;;;;;;;2.47;1.70;;;;;;;19.66;100.00;96588.00;5051428;27;102659;-63
2023/07/13 10:19:35;;;;;;;1.77;1.57;;;;;;;19.95;100.00;96593.88;5050758;27;103327;-63
2023/07/13 10:22:13;;;;;;;3.80;1.53;;;;;;;19.76;100.00;96593.19;5053166;27;102119;-63
2023/07/13 10:24:40;;;;;;;2.10;1.70;;;;;;;19.84;100.00;96608.69;5049429;27;104215;-63
2023/07/13 10:27:16;;;;;;;3.23;1.50;;;;;;;19.74;100.00;96614.31;5051239;27;102056;-63
2023/07/13 10:29:48;;;;;;;1.67;1.57;;;;;;;19.65;100.00;96608.00;5051321;27;102367;-63
2023/07/13 10:32:15;;;;;;;2.40;1.93;;;;;;;19.55;100.00;96616.31;5050602;27;102824;-63
2023/07/13 10:34:50;;;;;;;1.70;1.60;;;;;;;19.70;100.00;96616.81;5051113;27;102191;-63
2023/07/13 10:37:22;;;;;;;1.90;1.70;;;;;;;19.63;100.00;96613.69;5050691;27;102577;-63
2023/07/13 10:39:51;;;;;;;3.50;1.80;;;;;;;19.71;100.00;96620.28;5050364;27;102632;-63
2023/07/13 10:42:27;;;;;;;2.90;2.00;;;;;;;19.71;100.00;96631.09;5051009;27;102031;-63
2023/07/13 10:44:54;;;;;;;3.80;2.13;;;;;;;19.69;100.00;96633.31;5053917;27;101687;-63
2023/07/13 10:47:21;;;;;;;2.83;2.20;;;;;;;19.56;100.00;96639.53;5049431;27;102109;-63
2023/07/13 10:49:57;;;;;;;3.37;2.00;;;;;;;19.28;100.00;96638.72;5050845;27;103304;-63
2023/07/13 10:52:43;;;;;;;5.13;1.87;;;;;;;19.20;100.00;96641.25;5031944;27;106118;-63
2023/07/13 10:55:31;;;;;;;2.77;2.10;;;;;;;19.37;100.00;96647.72;5049414;27;102060;-63
2023/07/13 10:58:02;;;;;;;3.70;2.13;;;;;;;19.06;100.00;96643.13;5049676;27;105147;-63
2023/07/13 11:00:32;;;;;;;3.50;1.93;;;;;;;18.81;100.00;96651.69;5048596;27;106224;-63
2023/07/13 11:03:01;;;;;;;3.67;2.33;;;;;;;18.82;100.00;96642.50;5049226;27;101853;-63
2023/07/13 11:05:34;;;;;;;4.03;2.33;;;;;;;19.15;100.00;96652.94;5049091;27;104923;-63
2023/07/13 11:08:14;;;;;;;4.23;2.77;;;;;;;19.09;100.00;96650.63;5053474;27;103115;-62
2023/07/13 11:10:51;;;;;;;5.03;2.30;;;;;;;19.22;100.00;96649.88;5049143;27;105728;-63
2023/07/13 11:13:58;;;;;;;5.67;2.60;;;;;;;18.95;100.00;96650.63;5049683;27;102731;-65
2023/07/13 11:16:44;;;;;;;3.77;2.40;;;;;;;18.59;100.00;96643.44;5018836;27;101925;-63
2023/07/13 11:19:41;;;;;;;2.80;2.50;;;;;;;18.54;100.00;96643.50;5049187;27;105468;-67
2023/07/13 11:22:16;;;;;;;4.20;2.20;;;;;;;19.51;100.00;96647.72;5049935;27;102666;-63
2023/07/13 11:24:52;;;;;;;3.77;2.00;;;;;;;19.74;100.00;96639.41;5050717;27;102095;-64
2023/07/13 11:27:37;;;;;;;4.17;2.30;;;;;;;19.59;100.00;96644.28;5050444;27;102987;-63